Time;durP1;ratioP1;P1;durP2;ratioP2;P2;SDS_P1;SDS_P2;PMS_P1;PMS_P2;Temp;Humidity;BMP_temperature;BMP_pressure;BME280_temperature;BME280_humidity;BME280_pressure;Samples;Min_cycle;Max_cycle;Signal;HPM_P1;HPM_P2
2022/05/08 00:01:15;;;;;;;30.38;11.35;;;;;;;;;;5134564;27;20046;-58
2022/05/08 00:03:42;;;;;;;28.45;10.05;;;;;;;;;;5134981;27;20520;-58
2022/05/08 00:06:10;;;;;;;19.58;10.10;;;;;;;;;;5135871;27;20045;-58
2022/05/08 00:08:38;;;;;;;33.42;12.50;;;;;;;;;;5135003;27;20042;-58
2022/05/08 00:11:05;;;;;;;28.40;10.15;;;;;;;;;;5134892;27;20054;-58
2022/05/08 00:13:32;;;;;;;29.92;11.48;;;;;;;;;;5134656;27;20039;-58
2022/05/08 00:15:59;;;;;;;26.02;11.15;;;;;;;;;;5134528;27;20130;-58
2022/05/08 00:18:26;;;;;;;29.75;11.40;;;;;;;;;;5134606;27;20070;-58
2022/05/08 00:20:52;;;;;;;46.90;11.35;;;;;;;;;;5135370;27;20062;-59
2022/05/08 00:23:19;;;;;;;29.85;10.00;;;;;;;;;;5135033;27;20039;-58
2022/05/08 00:25:46;;;;;;;34.60;11.65;;;;;;;;;;5134380;27;20043;-58
2022/05/08 00:28:12;;;;;;;32.22;11.63;;;;;;;;;;5134329;27;20047;-59
2022/05/08 00:30:39;;;;;;;31.65;11.40;;;;;;;;;;5134022;27;20135;-59
2022/05/08 00:33:05;;;;;;;48.97;13.07;;;;;;;;;;5135063;27;20062;-58
2022/05/08 00:35:31;;;;;;;36.83;13.15;;;;;;;;;;5134007;27;20035;-58
2022/05/08 00:37:58;;;;;;;28.50;12.23;;;;;;;;;;5133972;27;20039;-58
2022/05/08 00:40:24;;;;;;;33.13;12.85;;;;;;;;;;5134397;27;20042;-58
2022/05/08 00:42:53;;;;;;;29.70;12.20;;;;;;;;;;5134093;27;20421;-58
2022/05/08 00:45:19;;;;;;;37.65;12.82;;;;;;;;;;5134086;27;20044;-58
2022/05/08 00:47:46;;;;;;;27.65;13.07;;;;;;;;;;5134908;27;20103;-58
2022/05/08 00:50:13;;;;;;;36.47;12.57;;;;;;;;;;5133807;27;20069;-58
2022/05/08 00:52:40;;;;;;;44.67;13.15;;;;;;;;;;5133643;27;20101;-58
2022/05/08 00:55:06;;;;;;;26.42;11.63;;;;;;;;;;5134064;27;20408;-59
2022/05/08 00:57:35;;;;;;;31.55;13.27;;;;;;;;;;5134025;27;20046;-58
2022/05/08 01:00:05;;;;;;;25.10;11.82;;;;;;;;;;5134409;27;20429;-58
2022/05/08 01:02:36;;;;;;;26.95;12.27;;;;;;;;;;5134006;27;20052;-58
2022/05/08 01:05:03;;;;;;;26.45;11.35;;;;;;;;;;5134182;27;20035;-59
2022/05/08 01:07:30;;;;;;;30.20;12.63;;;;;;;;;;5131979;27;20053;-58
2022/05/08 01:09:57;;;;;;;24.52;11.10;;;;;;;;;;5133699;27;20045;-59
2022/05/08 01:12:24;;;;;;;35.75;13.52;;;;;;;;;;5132717;27;20058;-59
2022/05/08 01:15:09;;;;;;;43.03;13.77;;;;;;;;;;5133562;27;20501;-58
2022/05/08 01:17:36;;;;;;;28.42;11.57;;;;;;;;;;5133754;27;20047;-59
2022/05/08 01:20:03;;;;;;;25.13;11.35;;;;;;;;;;5133689;27;20043;-58
2022/05/08 01:22:31;;;;;;;26.70;11.68;;;;;;;;;;5133419;27;20046;-58
2022/05/08 01:24:59;;;;;;;33.25;11.85;;;;;;;;;;5133754;27;20121;-58
2022/05/08 01:27:25;;;;;;;39.25;13.23;;;;;;;;;;5133620;27;20050;-58
2022/05/08 01:29:52;;;;;;;45.40;12.45;;;;;;;;;;5133806;27;20039;-58
2022/05/08 01:32:19;;;;;;;27.85;10.85;;;;;;;;;;5132967;27;20042;-58
2022/05/08 01:34:45;;;;;;;26.08;11.90;;;;;;;;;;5133328;27;20485;-58
2022/05/08 01:37:12;;;;;;;28.33;10.85;;;;;;;;;;5133348;27;20546;-58
2022/05/08 01:39:38;;;;;;;47.85;12.13;;;;;;;;;;5133328;27;20058;-58
2022/05/08 01:42:06;;;;;;;24.52;11.70;;;;;;;;;;5133696;27;20050;-58
2022/05/08 01:44:32;;;;;;;24.05;10.27;;;;;;;;;;5133195;27;20118;-59
2022/05/08 01:49:44;;;;;;;31.83;11.95;;;;;;;;;;5133121;27;20043;-59
2022/05/08 01:52:10;;;;;;;23.08;11.57;;;;;;;;;;5133505;27;20484;-59
2022/05/08 01:54:37;;;;;;;22.35;10.07;;;;;;;;;;5132970;27;20045;-59
2022/05/08 01:57:03;;;;;;;21.65;10.18;;;;;;;;;;5133517;27;20042;-59
2022/05/08 01:59:30;;;;;;;19.73;10.45;;;;;;;;;;5132642;27;20043;-59
2022/05/08 02:01:57;;;;;;;27.30;10.98;;;;;;;;;;5132367;27;20114;-59
2022/05/08 02:04:24;;;;;;;25.70;10.85;;;;;;;;;;5132087;27;20059;-59
2022/05/08 02:06:50;;;;;;;28.60;11.48;;;;;;;;;;5132692;27;20046;-58
2022/05/08 02:09:18;;;;;;;27.05;11.18;;;;;;;;;;5133232;27;20031;-57
2022/05/08 02:11:44;;;;;;;35.47;11.43;;;;;;;;;;5133037;27;20066;-58
2022/05/08 02:14:11;;;;;;;23.85;10.68;;;;;;;;;;5132530;27;20096;-58
2022/05/08 02:16:37;;;;;;;21.70;10.50;;;;;;;;;;5132374;27;20039;-58
2022/05/08 02:19:04;;;;;;;22.48;11.23;;;;;;;;;;5132598;27;20046;-58
2022/05/08 02:21:30;;;;;;;33.22;11.30;;;;;;;;;;5132572;27;20043;-58
2022/05/08 02:23:57;;;;;;;25.73;11.07;;;;;;;;;;5132999;27;20492;-58
2022/05/08 02:26:23;;;;;;;32.38;12.25;;;;;;;;;;5114110;28;20041;-58
2022/05/08 02:28:50;;;;;;;29.05;11.95;;;;;;;;;;5132493;27;20082;-58
2022/05/08 02:31:16;;;;;;;31.30;15.18;;;;;;;;;;5131988;28;20043;-59
2022/05/08 02:33:43;;;;;;;36.60;12.18;;;;;;;;;;5132456;28;20442;-59
2022/05/08 02:36:10;;;;;;;42.13;11.90;;;;;;;;;;5133259;28;20039;-58
2022/05/08 02:38:38;;;;;;;26.17;11.02;;;;;;;;;;5132153;27;20031;-59
2022/05/08 02:41:04;;;;;;;26.85;11.02;;;;;;;;;;5132333;27;20061;-59
2022/05/08 02:43:31;;;;;;;28.52;11.77;;;;;;;;;;5131881;27;20381;-59
2022/05/08 02:45:59;;;;;;;31.50;12.13;;;;;;;;;;5132213;28;20062;-59
2022/05/08 02:48:26;;;;;;;40.65;12.57;;;;;;;;;;5132257;28;20043;-58
2022/05/08 02:50:57;;;;;;;20.48;10.15;;;;;;;;;;5132827;28;20027;-58
2022/05/08 02:53:24;;;;;;;23.55;10.93;;;;;;;;;;5132254;27;20051;-58
2022/05/08 02:58:35;;;;;;;30.25;11.82;;;;;;;;;;5131982;28;20042;-58
2022/05/08 03:01:05;;;;;;;22.80;10.82;;;;;;;;;;5132123;28;20397;-59
2022/05/08 03:03:32;;;;;;;30.65;11.77;;;;;;;;;;5132095;28;20132;-58
2022/05/08 03:05:58;;;;;;;26.08;11.52;;;;;;;;;;5132847;28;20441;-59
2022/05/08 03:08:25;;;;;;;25.42;11.27;;;;;;;;;;5132284;27;20085;-58
2022/05/08 03:13:38;;;;;;;27.27;10.68;;;;;;;;;;5132007;27;20054;-59
2022/05/08 03:16:05;;;;;;;24.67;11.88;;;;;;;;;;5132857;27;20121;-59
2022/05/08 03:18:32;;;;;;;33.22;12.90;;;;;;;;;;5135905;27;20750;-58
2022/05/08 03:20:58;;;;;;;22.45;10.82;;;;;;;;;;5136419;27;20133;-59
2022/05/08 03:23:25;;;;;;;28.00;12.23;;;;;;;;;;5135802;27;20043;-58
2022/05/08 03:25:53;;;;;;;20.40;10.88;;;;;;;;;;5136246;27;20041;-59
2022/05/08 03:28:19;;;;;;;27.73;11.85;;;;;;;;;;5117301;27;20042;-59
2022/05/08 03:30:46;;;;;;;24.40;11.35;;;;;;;;;;5135608;27;20356;-59
2022/05/08 03:33:13;;;;;;;23.13;10.90;;;;;;;;;;5136442;27;20047;-58
2022/05/08 03:35:40;;;;;;;28.73;11.35;;;;;;;;;;5135430;27;20039;-58
2022/05/08 03:38:07;;;;;;;28.70;11.30;;;;;;;;;;5135529;27;20407;-58
2022/05/08 03:40:34;;;;;;;37.58;12.77;;;;;;;;;;5135616;27;20031;-58
2022/05/08 03:43:01;;;;;;;26.15;11.52;;;;;;;;;;5135422;27;20035;-58
2022/05/08 03:45:28;;;;;;;33.60;12.13;;;;;;;;;;5135267;27;20043;-58
2022/05/08 03:47:55;;;;;;;31.55;10.95;;;;;;;;;;5136114;27;20404;-58
2022/05/08 03:50:22;;;;;;;25.63;12.60;;;;;;;;;;5135161;27;20402;-58
2022/05/08 03:52:48;;;;;;;27.45;11.98;;;;;;;;;;5135576;27;20050;-58
2022/05/08 03:55:15;;;;;;;31.77;11.65;;;;;;;;;;5135244;27;20506;-58
2022/05/08 03:57:42;;;;;;;31.58;12.63;;;;;;;;;;5135256;27;20049;-59
2022/05/08 04:00:09;;;;;;;28.77;12.25;;;;;;;;;;5135538;27;20126;-59
2022/05/08 04:02:39;;;;;;;40.53;14.02;;;;;;;;;;5135091;27;20058;-58
2022/05/08 04:05:06;;;;;;;46.67;14.23;;;;;;;;;;5135048;27;20115;-59
2022/05/08 04:07:32;;;;;;;31.80;12.85;;;;;;;;;;5135413;27;20035;-59
2022/05/08 04:09:59;;;;;;;30.95;12.45;;;;;;;;;;5134984;27;20035;-59
2022/05/08 04:12:26;;;;;;;35.80;12.68;;;;;;;;;;5135014;27;20032;-59
2022/05/08 04:14:53;;;;;;;43.53;13.57;;;;;;;;;;5135235;27;20134;-59
2022/05/08 04:17:19;;;;;;;27.67;13.05;;;;;;;;;;5134794;27;20057;-59
2022/05/08 04:19:49;;;;;;;30.17;13.98;;;;;;;;;;5134825;27;20100;-58
2022/05/08 04:25:00;;;;;;;39.22;13.95;;;;;;;;;;5134800;27;20416;-58
2022/05/08 04:27:29;;;;;;;40.80;14.13;;;;;;;;;;5133877;27;20059;-58
2022/05/08 04:29:55;;;;;;;42.17;14.52;;;;;;;;;;5134987;27;20039;-58
2022/05/08 04:32:22;;;;;;;28.25;13.68;;;;;;;;;;5134725;27;20054;-58
2022/05/08 04:34:48;;;;;;;27.95;13.50;;;;;;;;;;5134367;27;20050;-59
2022/05/08 04:37:15;;;;;;;26.40;13.27;;;;;;;;;;5134561;27;20120;-58
2022/05/08 04:39:41;;;;;;;50.92;14.90;;;;;;;;;;5134421;27;20039;-59
2022/05/08 04:42:08;;;;;;;38.00;15.38;;;;;;;;;;5135262;27;20043;-58
2022/05/08 04:44:34;;;;;;;50.25;16.33;;;;;;;;;;5134025;27;20035;-59
2022/05/08 04:47:01;;;;;;;35.90;16.25;;;;;;;;;;5134304;27;20041;-59
2022/05/08 04:49:29;;;;;;;35.08;16.08;;;;;;;;;;5134279;27;20055;-59
2022/05/08 04:51:55;;;;;;;41.90;17.23;;;;;;;;;;5134318;27;20389;-58
2022/05/08 04:54:25;;;;;;;60.92;18.15;;;;;;;;;;5134040;27;20508;-59
2022/05/08 04:56:54;;;;;;;47.00;19.98;;;;;;;;;;5134914;27;20043;-59
2022/05/08 04:59:21;;;;;;;47.60;18.50;;;;;;;;;;5133959;27;20031;-59
2022/05/08 05:01:47;;;;;;;42.05;19.23;;;;;;;;;;5133728;27;20051;-59
2022/05/08 05:04:14;;;;;;;42.78;18.75;;;;;;;;;;5133813;27;20089;-58
2022/05/08 05:06:41;;;;;;;56.58;21.35;;;;;;;;;;5133866;27;20047;-58
2022/05/08 05:09:08;;;;;;;35.20;19.67;;;;;;;;;;5134568;27;20500;-58
2022/05/08 05:11:34;;;;;;;33.80;18.80;;;;;;;;;;5133608;27;20042;-58
2022/05/08 05:14:02;;;;;;;44.03;21.17;;;;;;;;;;5133677;27;20058;-58
2022/05/08 05:16:28;;;;;;;46.50;22.27;;;;;;;;;;5133357;27;20062;-58
2022/05/08 05:18:55;;;;;;;39.78;22.25;;;;;;;;;;5133506;27;20047;-59
2022/05/08 05:21:21;;;;;;;45.65;22.05;;;;;;;;;;5134169;27;20382;-58
2022/05/08 05:23:48;;;;;;;48.90;19.23;;;;;;;;;;5115166;27;20051;-58
2022/05/08 05:26:14;;;;;;;37.28;19.13;;;;;;;;;;5133737;27;20043;-59
2022/05/08 05:28:43;;;;;;;33.47;18.13;;;;;;;;;;5133434;27;20492;-59
2022/05/08 05:31:09;;;;;;;29.35;18.13;;;;;;;;;;5115154;27;20133;-59
2022/05/08 05:33:36;;;;;;;37.35;19.10;;;;;;;;;;5133202;27;20046;-60
2022/05/08 05:36:02;;;;;;;33.88;17.38;;;;;;;;;;5134160;27;20476;-59
2022/05/08 05:38:29;;;;;;;36.08;17.88;;;;;;;;;;5132954;27;20034;-59
2022/05/08 05:40:56;;;;;;;27.67;16.60;;;;;;;;;;5133159;27;20034;-59
2022/05/08 05:43:22;;;;;;;30.58;15.82;;;;;;;;;;5133005;27;20035;-59
2022/05/08 05:47:49;;;;;;;24.38;15.55;;;;;;;;;;5133102;27;20078;-59
2022/05/08 05:48:36;;;;;;;31.05;15.43;;;;;;;;;;5133374;27;20039;-58
2022/05/08 05:51:03;;;;;;;25.95;15.77;;;;;;;;;;5133784;27;20489;-59
2022/05/08 05:53:30;;;;;;;34.92;15.75;;;;;;;;;;5132970;27;20050;-58
2022/05/08 05:55:59;;;;;;;24.60;15.55;;;;;;;;;;5133527;27;20039;-59
2022/05/08 05:58:25;;;;;;;42.70;16.80;;;;;;;;;;5132789;27;20046;-59
2022/05/08 06:00:52;;;;;;;29.65;16.00;;;;;;;;;;5132576;27;20531;-59
2022/05/08 06:03:18;;;;;;;28.58;14.73;;;;;;;;;;5132698;27;20134;-59
2022/05/08 06:05:46;;;;;;;39.47;16.30;;;;;;;;;;5133366;27;20042;-59
2022/05/08 06:08:13;;;;;;;29.70;14.88;;;;;;;;;;5128769;27;20066;-58
2022/05/08 06:10:39;;;;;;;33.67;14.07;;;;;;;;;;5132106;27;20154;-59
2022/05/08 06:13:07;;;;;;;22.63;10.88;;;;;;;;;;5114755;27;20477;-59
2022/05/08 06:15:33;;;;;;;34.03;12.43;;;;;;;;;;5131486;27;20056;-59
2022/05/08 06:18:00;;;;;;;25.45;12.27;;;;;;;;;;5132864;27;20043;-59
2022/05/08 06:20:26;;;;;;;31.95;12.20;;;;;;;;;;5132343;27;20404;-59
2022/05/08 06:22:54;;;;;;;20.80;10.25;;;;;;;;;;5132254;27;20130;-59
2022/05/08 06:25:21;;;;;;;17.40;9.30;;;;;;;;;;5132684;27;20039;-58
2022/05/08 06:27:47;;;;;;;20.95;9.65;;;;;;;;;;5132989;27;20054;-59
2022/05/08 06:30:14;;;;;;;19.70;9.30;;;;;;;;;;5132869;27;20064;-59
2022/05/08 06:32:40;;;;;;;17.80;9.35;;;;;;;;;;5114101;28;20043;-59
2022/05/08 06:35:26;;;;;;;16.95;9.20;;;;;;;;;;5132272;28;20036;-59
2022/05/08 06:37:54;;;;;;;13.80;7.55;;;;;;;;;;5125710;27;20082;-58
2022/05/08 06:40:21;;;;;;;18.75;8.10;;;;;;;;;;5121508;28;20106;-59
2022/05/08 06:42:48;;;;;;;20.02;7.72;;;;;;;;;;5128091;28;20039;-58
2022/05/08 06:45:14;;;;;;;15.98;8.32;;;;;;;;;;5132338;28;20051;-58
2022/05/08 06:47:46;;;;;;;17.02;7.47;;;;;;;;;;5131980;28;20043;-59
2022/05/08 06:50:13;;;;;;;18.92;7.78;;;;;;;;;;5130476;27;20054;-59
2022/05/08 06:52:39;;;;;;;32.80;9.73;;;;;;;;;;5134291;27;20086;-58
2022/05/08 06:55:06;;;;;;;14.98;6.60;;;;;;;;;;5136172;27;20050;-58
2022/05/08 06:57:32;;;;;;;57.33;10.77;;;;;;;;;;5134925;27;20412;-59
2022/05/08 07:02:45;;;;;;;20.90;6.20;;;;;;;;;;5135931;27;20382;-58
2022/05/08 07:05:13;;;;;;;11.77;5.57;;;;;;;;;;5135767;27;20457;-58
2022/05/08 07:07:39;;;;;;;25.60;6.80;;;;;;;;;;5135666;27;20035;-58
2022/05/08 07:10:06;;;;;;;20.80;6.13;;;;;;;;;;5136098;27;20061;-59
2022/05/08 07:12:34;;;;;;;29.98;7.55;;;;;;;;;;5135807;27;20515;-58
2022/05/08 07:15:00;;;;;;;22.17;6.68;;;;;;;;;;5135685;27;20049;-58
2022/05/08 07:17:28;;;;;;;40.13;9.05;;;;;;;;;;5124539;27;20043;-58
2022/05/08 07:19:55;;;;;;;74.35;11.98;;;;;;;;;;5122926;27;21191;-58
2022/05/08 07:22:23;;;;;;;117.40;16.70;;;;;;;;;;5123134;27;20100;-58
2022/05/08 07:24:49;;;;;;;73.95;12.13;;;;;;;;;;5130250;27;20433;-58
2022/05/08 07:27:16;;;;;;;75.32;11.88;;;;;;;;;;5125294;27;20035;-59
2022/05/08 07:29:43;;;;;;;44.90;8.65;;;;;;;;;;5127311;27;20042;-58
2022/05/08 07:32:10;;;;;;;68.05;11.48;;;;;;;;;;5126377;27;20122;-58
2022/05/08 07:37:22;;;;;;;14.73;5.93;;;;;;;;;;5130365;27;20460;-58
2022/05/08 07:39:49;;;;;;;14.18;5.28;;;;;;;;;;5135314;27;20047;-59
2022/05/08 07:42:15;;;;;;;20.65;5.38;;;;;;;;;;5136003;27;20047;-59
2022/05/08 07:44:41;;;;;;;16.60;5.40;;;;;;;;;;5134950;27;20122;-58
2022/05/08 07:47:10;;;;;;;25.90;6.40;;;;;;;;;;5134787;27;20126;-59
2022/05/08 07:49:36;;;;;;;34.22;7.32;;;;;;;;;;5134911;27;20140;-58
2022/05/08 07:52:03;;;;;;;19.63;6.03;;;;;;;;;;5135500;27;20039;-58
2022/05/08 07:54:29;;;;;;;16.20;5.30;;;;;;;;;;5135182;27;20137;-59
2022/05/08 07:56:55;;;;;;;21.38;5.10;;;;;;;;;;5135335;27;20532;-59
2022/05/08 07:59:22;;;;;;;17.48;5.13;;;;;;;;;;5134999;27;20035;-58
2022/05/08 08:01:48;;;;;;;28.65;6.13;;;;;;;;;;5126145;27;20045;-58
2022/05/08 08:04:17;;;;;;;14.73;5.07;;;;;;;;;;5134236;27;20067;-58
2022/05/08 08:06:43;;;;;;;73.05;44.35;;;;;;;;;;5135045;27;20031;-58
2022/05/08 08:09:10;;;;;;;18.60;7.00;;;;;;;;;;5135333;27;20054;-58
2022/05/08 08:11:38;;;;;;;12.95;4.85;;;;;;;;;;5134499;27;20520;-58
2022/05/08 08:14:05;;;;;;;40.13;6.32;;;;;;;;;;5131304;27;20489;-58
2022/05/08 08:16:31;;;;;;;10.00;4.10;;;;;;;;;;5133669;27;20605;-58
2022/05/08 08:18:58;;;;;;;15.68;4.78;;;;;;;;;;5134432;27;20049;-59
2022/05/08 08:21:24;;;;;;;16.90;4.65;;;;;;;;;;5134799;27;20047;-59
2022/05/08 08:23:52;;;;;;;22.95;5.78;;;;;;;;;;5134901;27;20042;-58
2022/05/08 08:26:19;;;;;;;18.85;6.03;;;;;;;;;;5134795;27;20046;-59
2022/05/08 08:28:45;;;;;;;16.33;4.57;;;;;;;;;;5133976;27;20031;-58
2022/05/08 08:31:11;;;;;;;10.55;4.32;;;;;;;;;;5134038;27;20039;-58
2022/05/08 08:33:39;;;;;;;12.23;4.60;;;;;;;;;;5134295;27;20126;-59
2022/05/08 08:36:09;;;;;;;11.32;4.07;;;;;;;;;;5135254;27;20035;-58
2022/05/08 08:38:36;;;;;;;14.00;4.43;;;;;;;;;;5133800;27;20038;-59
2022/05/08 08:41:04;;;;;;;15.27;4.57;;;;;;;;;;5134241;27;20047;-58
2022/05/08 08:49:05;;;;;;;14.68;4.00;;;;;;;;;;5134189;27;20528;-58
2022/05/08 08:51:33;;;;;;;18.92;4.22;;;;;;;;;;5134252;27;20039;-58
2022/05/08 08:53:59;;;;;;;20.15;4.80;;;;;;;;;;5134743;27;20043;-58
2022/05/08 08:56:27;;;;;;;10.68;4.18;;;;;;;;;;5134234;27;20035;-59
2022/05/08 08:58:53;;;;;;;12.43;4.00;;;;;;;;;;5133884;27;20039;-58
2022/05/08 09:01:20;;;;;;;12.48;4.15;;;;;;;;;;5133603;27;20042;-59
2022/05/08 09:03:47;;;;;;;18.33;4.72;;;;;;;;;;5133596;27;20031;-59
2022/05/08 09:06:13;;;;;;;10.45;3.72;;;;;;;;;;5129710;27;20117;-58
2022/05/08 09:08:39;;;;;;;10.90;3.35;;;;;;;;;;5133793;27;20035;-58
2022/05/08 09:11:10;;;;;;;9.18;3.33;;;;;;;;;;5133764;27;20043;-59
2022/05/08 09:13:48;;;;;;;14.13;3.97;;;;;;;;;;5133834;27;20036;-58
2022/05/08 09:16:14;;;;;;;12.48;3.05;;;;;;;;;;5133105;27;20542;-58
2022/05/08 09:18:45;;;;;;;12.10;3.47;;;;;;;;;;5133723;27;20055;-59
2022/05/08 09:24:10;;;;;;;12.90;3.67;;;;;;;;;;5116020;27;20050;-58
2022/05/08 09:26:38;;;;;;;39.88;5.25;;;;;;;;;;5133226;27;20473;-59
2022/05/08 09:29:05;;;;;;;14.48;3.70;;;;;;;;;;5133211;27;20043;-56
2022/05/08 09:31:39;;;;;;;12.43;4.13;;;;;;;;;;5132818;27;20500;-58
2022/05/08 09:34:13;;;;;;;18.52;4.35;;;;;;;;;;5133340;27;20130;-58
2022/05/08 09:36:40;;;;;;;25.20;5.15;;;;;;;;;;5133202;27;20039;-58
2022/05/08 09:39:07;;;;;;;18.65;5.03;;;;;;;;;;5133307;27;20062;-58
2022/05/08 09:41:36;;;;;;;23.40;4.60;;;;;;;;;;5132145;27;20030;-59
2022/05/08 09:44:12;;;;;;;33.38;5.53;;;;;;;;;;5131517;27;20035;-59
2022/05/08 09:46:43;;;;;;;16.67;4.38;;;;;;;;;;5132389;27;20114;-59
2022/05/08 09:49:17;;;;;;;15.68;3.45;;;;;;;;;;5133129;27;20099;-59
2022/05/08 09:51:44;;;;;;;18.40;4.28;;;;;;;;;;5132864;27;20083;-59
2022/05/08 09:54:13;;;;;;;25.67;9.63;;;;;;;;;;5133532;27;20039;-58
2022/05/08 09:56:40;;;;;;;24.55;5.82;;;;;;;;;;5131365;27;20040;-58
2022/05/08 09:59:07;;;;;;;18.23;4.30;;;;;;;;;;5131955;27;20154;-59
2022/05/08 10:01:34;;;;;;;21.38;4.13;;;;;;;;;;5132037;27;20046;-59
2022/05/08 10:04:01;;;;;;;69.18;8.75;;;;;;;;;;5132359;27;20101;-59
2022/05/08 10:06:28;;;;;;;35.85;6.10;;;;;;;;;;5132868;27;20058;-59
2022/05/08 10:13:53;;;;;;;15.05;3.53;;;;;;;;;;5133417;27;20035;-59
2022/05/08 10:14:30;;;;;;;13.20;3.67;;;;;;;;;;5132384;27;20405;-58
2022/05/08 10:16:59;;;;;;;10.88;3.05;;;;;;;;;;5132269;27;20046;-58
2022/05/08 10:19:26;;;;;;;11.73;3.33;;;;;;;;;;5132870;27;20386;-58
2022/05/08 10:21:55;;;;;;;11.23;3.10;;;;;;;;;;5132519;27;20039;-58
2022/05/08 10:24:31;;;;;;;23.20;4.47;;;;;;;;;;5132664;27;20047;-58
2022/05/08 10:27:10;;;;;;;11.65;2.78;;;;;;;;;;5130395;27;20523;-59
2022/05/08 10:29:37;;;;;;;13.18;2.97;;;;;;;;;;5132148;27;20039;-58
2022/05/08 10:32:06;;;;;;;11.10;3.40;;;;;;;;;;5132208;27;20507;-59
2022/05/08 10:34:37;;;;;;;16.48;2.67;;;;;;;;;;5132453;28;20046;-58
2022/05/08 10:37:13;;;;;;;22.02;3.92;;;;;;;;;;5132275;27;20039;-59
2022/05/08 10:39:47;;;;;;;18.23;3.60;;;;;;;;;;5132372;27;20130;-58
2022/05/08 10:42:13;;;;;;;;;;;;;;;;;;5133549;28;20088;-58
2022/05/08 10:44:42;;;;;;;25.00;3.60;;;;;;;;;;5132006;27;19958;-59
2022/05/08 10:47:30;;;;;;;7.35;2.33;;;;;;;;;;5132260;28;20573;-58
2022/05/08 10:49:57;;;;;;;7.68;2.55;;;;;;;;;;5132372;28;20039;-58
2022/05/08 10:52:25;;;;;;;8.43;2.63;;;;;;;;;;5132076;28;20450;-59
2022/05/08 10:55:01;;;;;;;28.15;4.53;;;;;;;;;;5132441;27;20385;-58
2022/05/08 10:57:33;;;;;;;37.42;5.07;;;;;;;;;;5131996;28;20039;-58
2022/05/08 11:00:00;;;;;;;12.93;3.13;;;;;;;;;;5132267;27;20139;-58
2022/05/08 11:02:45;;;;;;;22.35;3.97;;;;;;;;;;5132271;28;20405;-59
2022/05/08 11:05:12;;;;;;;25.17;3.50;;;;;;;;;;5131964;28;20047;-59
2022/05/08 11:07:40;;;;;;;16.50;3.08;;;;;;;;;;5131968;28;20031;-58
2022/05/08 11:10:14;;;;;;;22.10;3.65;;;;;;;;;;5131984;28;20046;-59
2022/05/08 11:12:59;;;;;;;23.60;4.00;;;;;;;;;;5132169;27;20481;-59
2022/05/08 11:15:26;;;;;;;22.25;3.78;;;;;;;;;;5131816;27;20052;-59
2022/05/08 11:18:09;;;;;;;17.05;3.65;;;;;;;;;;5132650;28;20412;-59
2022/05/08 11:20:36;;;;;;;12.93;3.17;;;;;;;;;;5132415;28;20047;-59
2022/05/08 11:23:06;;;;;;;12.20;3.10;;;;;;;;;;5131896;28;20409;-59
2022/05/08 11:25:33;;;;;;;25.38;5.25;;;;;;;;;;5131566;28;20050;-59
2022/05/08 11:28:00;;;;;;;12.23;2.53;;;;;;;;;;5132084;28;20039;-59
2022/05/08 11:30:34;;;;;;;652.38;53.58;;;;;;;;;;5131548;27;20045;-59
2022/05/08 11:36:06;;;;;;;6.40;2.63;;;;;;;;;;5131971;28;20039;-59
2022/05/08 11:38:44;;;;;;;8.32;2.47;;;;;;;;;;5132653;27;20114;-59
2022/05/08 11:41:11;;;;;;;17.98;2.70;;;;;;;;;;5135563;27;20039;-59
2022/05/08 11:43:39;;;;;;;26.63;4.40;;;;;;;;;;5134368;27;20047;-59
2022/05/08 11:46:07;;;;;;;34.03;4.55;;;;;;;;;;5134801;27;20374;-59
2022/05/08 11:48:40;;;;;;;36.20;5.15;;;;;;;;;;5135470;27;20039;-59
2022/05/08 11:51:07;;;;;;;14.55;2.90;;;;;;;;;;5135998;27;20074;-59
2022/05/08 11:53:44;;;;;;;6.80;2.10;;;;;;;;;;5135442;27;20039;-59
2022/05/08 11:56:30;;;;;;;35.95;3.45;;;;;;;;;;5135412;27;20043;-59
2022/05/08 11:58:58;;;;;;;25.50;3.33;;;;;;;;;;5135439;27;20039;-58
2022/05/08 12:01:32;;;;;;;21.23;3.78;;;;;;;;;;5134818;27;20043;-59
2022/05/08 12:04:18;;;;;;;8.68;2.15;;;;;;;;;;5135258;27;20039;-59
2022/05/08 12:07:03;;;;;;;20.42;3.53;;;;;;;;;;5135516;27;20059;-59
2022/05/08 12:09:30;;;;;;;56.67;5.50;;;;;;;;;;5134800;27;20489;-59
2022/05/08 12:12:16;;;;;;;15.63;2.70;;;;;;;;;;5135500;27;20482;-59
2022/05/08 12:14:43;;;;;;;19.85;3.78;;;;;;;;;;5134476;27;20130;-59
2022/05/08 12:17:09;;;;;;;11.43;2.00;;;;;;;;;;5134766;27;20039;-59
2022/05/08 12:19:36;;;;;;;30.15;4.00;;;;;;;;;;5134564;27;20114;-59
2022/05/08 12:22:18;;;;;;;39.08;3.90;;;;;;;;;;5134850;27;20358;-59
2022/05/08 12:24:45;;;;;;;52.50;5.90;;;;;;;;;;5134731;27;20043;-59
2022/05/08 12:27:12;;;;;;;30.60;4.50;;;;;;;;;;5134724;27;20065;-59
2022/05/08 12:29:43;;;;;;;17.75;3.47;;;;;;;;;;5134587;27;20035;-57
2022/05/08 12:32:09;;;;;;;17.08;2.70;;;;;;;;;;5134733;27;20051;-58
2022/05/08 12:34:37;;;;;;;59.25;7.35;;;;;;;;;;5134288;27;20050;-58
2022/05/08 12:37:03;;;;;;;144.18;11.60;;;;;;;;;;5134078;27;20039;-58
2022/05/08 12:39:30;;;;;;;35.83;5.25;;;;;;;;;;5134697;27;20043;-58
2022/05/08 12:41:57;;;;;;;17.90;2.92;;;;;;;;;;5134715;27;20126;-58
2022/05/08 12:44:23;;;;;;;16.55;3.03;;;;;;;;;;5134168;27;20047;-58
2022/05/08 12:46:50;;;;;;;12.27;2.25;;;;;;;;;;5133751;27;20039;-58
2022/05/08 12:49:16;;;;;;;11.38;2.45;;;;;;;;;;5133989;27;20472;-58
2022/05/08 12:51:45;;;;;;;25.70;3.92;;;;;;;;;;5133923;27;20049;-58
2022/05/08 12:54:11;;;;;;;39.13;4.15;;;;;;;;;;5134569;27;20031;-58
2022/05/08 12:56:38;;;;;;;23.10;3.42;;;;;;;;;;5133894;27;20039;-58
2022/05/08 13:01:49;;;;;;;37.38;5.28;;;;;;;;;;5132168;27;20043;-58
2022/05/08 13:04:15;;;;;;;16.58;2.47;;;;;;;;;;5123514;27;20035;-58
2022/05/08 13:06:42;;;;;;;22.10;3.03;;;;;;;;;;5133112;27;20039;-58
2022/05/08 13:09:09;;;;;;;36.80;3.97;;;;;;;;;;5134156;27;20100;-58
2022/05/08 13:11:36;;;;;;;17.50;3.03;;;;;;;;;;5133318;27;20079;-58
2022/05/08 13:14:03;;;;;;;25.23;4.38;;;;;;;;;;5114478;27;20031;-57
2022/05/08 13:16:30;;;;;;;25.98;2.97;;;;;;;;;;5131890;27;20046;-58
2022/05/08 13:18:58;;;;;;;9.20;2.17;;;;;;;;;;5133304;27;20079;-58
2022/05/08 13:21:25;;;;;;;55.08;4.90;;;;;;;;;;5133509;27;20047;-58
2022/05/08 13:23:54;;;;;;;25.15;3.40;;;;;;;;;;5133844;27;20051;-58
2022/05/08 13:26:20;;;;;;;7.88;1.73;;;;;;;;;;5133332;27;20035;-58
2022/05/08 13:28:47;;;;;;;18.17;3.08;;;;;;;;;;5132691;27;20045;-58
2022/05/08 13:31:14;;;;;;;24.13;3.17;;;;;;;;;;5131638;27;20047;-57
2022/05/08 13:33:41;;;;;;;18.30;2.90;;;;;;;;;;5132326;27;20573;-58
2022/05/08 13:36:08;;;;;;;115.20;8.98;;;;;;;;;;5132917;27;20035;-58
2022/05/08 13:38:35;;;;;;;179.15;13.05;;;;;;;;;;5132218;27;20031;-58
2022/05/08 13:41:02;;;;;;;20.48;2.95;;;;;;;;;;5132616;27;20065;-58
2022/05/08 13:43:29;;;;;;;42.95;4.40;;;;;;;;;;5132885;27;20473;-58
2022/05/08 13:45:55;;;;;;;13.43;2.22;;;;;;;;;;5132263;27;20133;-58
2022/05/08 13:48:22;;;;;;;10.13;2.28;;;;;;;;;;5133424;27;20043;-58
2022/05/08 13:50:49;;;;;;;39.72;3.92;;;;;;;;;;5133040;27;20408;-58
2022/05/08 13:53:16;;;;;;;12.55;2.13;;;;;;;;;;5132676;27;20047;-57
2022/05/08 13:55:44;;;;;;;30.13;3.85;;;;;;;;;;5132838;27;20039;-58
2022/05/08 13:58:11;;;;;;;10.38;2.30;;;;;;;;;;5132867;27;20035;-58
2022/05/08 14:00:39;;;;;;;20.33;3.40;;;;;;;;;;5130955;27;20515;-58
2022/05/08 14:03:07;;;;;;;13.85;2.05;;;;;;;;;;5133055;27;20043;-57
2022/05/08 14:05:34;;;;;;;12.68;2.17;;;;;;;;;;5132028;27;20051;-58
2022/05/08 14:08:00;;;;;;;10.65;1.95;;;;;;;;;;5132499;27;20035;-58
2022/05/08 14:10:27;;;;;;;24.15;3.20;;;;;;;;;;5132799;27;20039;-58
2022/05/08 14:12:53;;;;;;;33.30;3.13;;;;;;;;;;5132406;27;20031;-58
2022/05/08 14:15:23;;;;;;;26.00;2.97;;;;;;;;;;5132847;27;20043;-57
2022/05/08 14:17:50;;;;;;;18.30;2.90;;;;;;;;;;5132582;27;20062;-58
2022/05/08 14:20:17;;;;;;;33.00;3.75;;;;;;;;;;5130605;27;20043;-58
2022/05/08 14:22:44;;;;;;;98.80;8.38;;;;;;;;;;5131137;27;20051;-58
2022/05/08 14:25:12;;;;;;;23.08;2.90;;;;;;;;;;5132185;27;20126;-58
2022/05/08 14:27:38;;;;;;;29.02;3.85;;;;;;;;;;5132131;27;20043;-58
2022/05/08 14:30:08;;;;;;;17.45;2.70;;;;;;;;;;5132534;27;20122;-58
2022/05/08 14:38:06;;;;;;;32.88;4.53;;;;;;;;;;5130174;27;20137;-58
2022/05/08 14:40:34;;;;;;;76.90;6.55;;;;;;;;;;5130214;28;20046;-57
2022/05/08 14:43:00;;;;;;;28.52;4.28;;;;;;;;;;5130042;28;20469;-58
2022/05/08 14:45:28;;;;;;;20.08;3.15;;;;;;;;;;5130124;27;20049;-57
2022/05/08 14:47:57;;;;;;;21.80;3.35;;;;;;;;;;5131191;28;20050;-57
2022/05/08 14:50:25;;;;;;;21.48;2.80;;;;;;;;;;5132454;27;20409;-58
2022/05/08 14:52:55;;;;;;;45.95;5.13;;;;;;;;;;5132061;28;20046;-58
2022/05/08 14:55:22;;;;;;;37.22;5.20;;;;;;;;;;5132215;28;20396;-58
2022/05/08 14:57:48;;;;;;;19.38;2.90;;;;;;;;;;5132190;28;20062;-57
2022/05/08 15:00:18;;;;;;;9.95;2.03;;;;;;;;;;5132561;28;20035;-58
2022/05/08 15:02:45;;;;;;;19.33;3.30;;;;;;;;;;5131895;28;20483;-58
2022/05/08 15:05:11;;;;;;;9.88;1.90;;;;;;;;;;5132156;27;20051;-58
2022/05/08 15:07:38;;;;;;;25.80;3.33;;;;;;;;;;5132132;28;20035;-58